createdAt,value
2022-07-29T00:00:16.653Z,99806.88
2022-07-29T00:01:49.344Z,99817.66
2022-07-29T00:03:21.470Z,99820.41
2022-07-29T00:04:53.728Z,99818.09
2022-07-29T00:06:25.755Z,99818.50
2022-07-29T00:07:57.956Z,99811.22
2022-07-29T00:09:29.998Z,99812.38
2022-07-29T00:11:02.047Z,99825.84
2022-07-29T00:12:34.078Z,99831.25
2022-07-29T00:14:06.810Z,99828.03
2022-07-29T00:15:39.013Z,99822.88
2022-07-29T00:17:11.138Z,99823.91
2022-07-29T00:18:43.527Z,99825.78
2022-07-29T00:20:15.599Z,99830.41
2022-07-29T00:21:47.721Z,99831.47
2022-07-29T00:23:19.793Z,99836.94
2022-07-29T00:24:52.046Z,99838.84
2022-07-29T00:26:24.110Z,99833.75
2022-07-29T00:27:56.112Z,99844.19
2022-07-29T00:29:35.512Z,99836.50
2022-07-29T00:31:07.851Z,99835.84
2022-07-29T00:32:39.918Z,99837.75
2022-07-29T00:34:32.020Z,99831.81
2022-07-29T00:36:04.441Z,99835.50
2022-07-29T00:37:36.690Z,99833.06
2022-07-29T00:39:08.772Z,99838.53
2022-07-29T00:40:43.876Z,99830.06
2022-07-29T00:42:17.656Z,99834.63
2022-07-29T00:43:50.000Z,99831.03
2022-07-29T00:45:23.365Z,99830.19
2022-07-29T00:46:55.464Z,99831.13
2022-07-29T00:48:27.664Z,99833.66
2022-07-29T00:49:59.749Z,99836.22
2022-07-29T00:51:31.992Z,99839.75
2022-07-29T00:53:05.765Z,99839.88
2022-07-29T00:54:44.275Z,99843.53
2022-07-29T00:56:17.045Z,99837.66
2022-07-29T00:57:49.215Z,99833.41
2022-07-29T00:59:21.302Z,99837.06
2022-07-29T01:00:53.813Z,99827.75
2022-07-29T01:02:25.929Z,99830.53
2022-07-29T01:03:58.024Z,99833.34
2022-07-29T01:05:48.137Z,99831.66
2022-07-29T01:07:24.644Z,99835.97
2022-07-29T01:08:56.982Z,99835.03
2022-07-29T01:10:29.479Z,99831.66
2022-07-29T01:12:01.896Z,99831.00
2022-07-29T01:13:34.621Z,99834.75
2022-07-29T01:15:08.224Z,99837.69
2022-07-29T01:17:13.924Z,99839.94
2022-07-29T01:18:51.250Z,99847.25
2022-07-29T01:20:31.264Z,99836.16
2022-07-29T01:22:32.769Z,99849.34
2022-07-29T01:24:29.050Z,99845.75
2022-07-29T01:26:22.545Z,99844.06
2022-07-29T01:28:16.937Z,99854.59
2022-07-29T01:29:57.000Z,99848.66
2022-07-29T01:31:58.460Z,99850.63
2022-07-29T01:33:52.070Z,99859.78
2022-07-29T01:35:35.668Z,99861.75
2022-07-29T01:37:10.539Z,99852.34
2022-07-29T01:38:44.666Z,99853.28
2022-07-29T01:40:30.214Z,99856.69
2022-07-29T01:42:22.582Z,99850.66
2022-07-29T01:44:01.765Z,99848.13
2022-07-29T01:45:54.872Z,99842.03
2022-07-29T01:47:52.585Z,99849.91
2022-07-29T01:49:30.412Z,99842.94
2022-07-29T01:51:21.253Z,99844.81
2022-07-29T01:53:01.755Z,99853.84
2022-07-29T01:55:00.660Z,99841.88
2022-07-29T01:56:35.025Z,99845.47
2022-07-29T01:58:07.742Z,99847.25
2022-07-29T01:59:40.391Z,99841.13
2022-07-29T02:01:14.143Z,99848.94
2022-07-29T02:02:48.321Z,99842.94
2022-07-29T02:04:29.202Z,99849.97
2022-07-29T02:07:42.006Z,99847.06
2022-07-29T02:09:15.145Z,99840.00
2022-07-29T02:10:49.046Z,99854.78
2022-07-29T02:12:22.244Z,99848.78
2022-07-29T02:13:55.607Z,99846.16
2022-07-29T02:15:29.034Z,99849.53
2022-07-29T02:17:02.150Z,99849.31
2022-07-29T02:18:35.016Z,99857.97
2022-07-29T02:20:08.484Z,99855.06
2022-07-29T02:21:42.200Z,99854.97
2022-07-29T02:23:16.462Z,99854.06
2022-07-29T02:24:49.143Z,99857.53
2022-07-29T02:26:23.432Z,99857.44
2022-07-29T02:27:55.739Z,99858.56
2022-07-29T02:29:29.431Z,99851.69
2022-07-29T02:31:03.786Z,99853.66
2022-07-29T02:32:37.209Z,99853.09
2022-07-29T02:34:13.659Z,99849.03
2022-07-29T02:35:48.071Z,99859.66
2022-07-29T02:37:20.247Z,99853.66
2022-07-29T02:38:52.947Z,99862.53
2022-07-29T02:40:32.400Z,99867.72
2022-07-29T02:42:09.670Z,99870.56
2022-07-29T02:43:43.705Z,99866.41
2022-07-29T02:45:15.763Z,99862.28
2022-07-29T02:47:03.899Z,99861.44
2022-07-29T02:49:18.184Z,99861.44
2022-07-29T02:50:52.179Z,99861.50
2022-07-29T02:52:59.893Z,99852.94
2022-07-29T02:54:40.793Z,99858.28
2022-07-29T02:56:15.502Z,99862.03
2022-07-29T02:58:02.425Z,99864.09
2022-07-29T02:59:36.138Z,99858.09
2022-07-29T03:01:21.840Z,99857.34
2022-07-29T03:02:55.421Z,99854.78
2022-07-29T03:04:29.860Z,99854.00
2022-07-29T03:06:03.146Z,99844.44
2022-07-29T03:07:35.459Z,99849.59
2022-07-29T03:09:12.893Z,99848.72
2022-07-29T03:10:46.881Z,99852.31
2022-07-29T03:12:18.855Z,99853.91
2022-07-29T03:13:51.377Z,99854.94
2022-07-29T03:15:24.778Z,99848.84
2022-07-29T03:16:56.975Z,99849.00
2022-07-29T03:18:29.095Z,99850.72
2022-07-29T03:20:01.502Z,99849.84
2022-07-29T03:21:33.784Z,99845.53
2022-07-29T03:23:06.064Z,99859.72
2022-07-29T03:24:38.432Z,99856.13
2022-07-29T03:26:10.551Z,99868.38
2022-07-29T03:27:43.428Z,99865.63
2022-07-29T03:29:15.450Z,99867.41
2022-07-29T03:30:48.222Z,99863.09
2022-07-29T03:32:23.723Z,99866.38
2022-07-29T03:33:56.169Z,99871.66
2022-07-29T03:35:28.336Z,99868.00
2022-07-29T03:37:00.344Z,99867.84
2022-07-29T03:38:35.317Z,99863.34
2022-07-29T03:40:09.950Z,99869.38
2022-07-29T03:41:43.293Z,99862.41
2022-07-29T03:43:15.202Z,99862.16
2022-07-29T03:44:49.237Z,99858.56
2022-07-29T03:46:23.703Z,99857.72
2022-07-29T03:48:00.841Z,99860.38
2022-07-29T03:49:34.287Z,99862.16
2022-07-29T03:51:06.845Z,99860.16
2022-07-29T03:52:39.577Z,99863.38
2022-07-29T03:54:12.366Z,99861.50
2022-07-29T03:55:50.210Z,99864.69
2022-07-29T03:57:25.573Z,99867.25
2022-07-29T03:58:57.777Z,99862.00
2022-07-29T04:00:30.247Z,99867.16
2022-07-29T04:02:04.291Z,99868.75
2022-07-29T04:03:36.533Z,99868.56
2022-07-29T04:05:14.072Z,99857.78
2022-07-29T04:06:48.263Z,99854.97
2022-07-29T04:08:20.622Z,99853.00
2022-07-29T04:09:52.836Z,99850.16
2022-07-29T04:11:24.976Z,99845.56
2022-07-29T04:12:57.026Z,99847.06
2022-07-29T04:14:29.098Z,99857.31
2022-07-29T04:16:01.166Z,99855.56
2022-07-29T04:17:33.327Z,99858.75
2022-07-29T04:19:05.449Z,99856.84
2022-07-29T04:20:37.512Z,99854.97
2022-07-29T04:22:09.541Z,99856.47
2022-07-29T04:23:52.832Z,99853.75
2022-07-29T04:25:25.984Z,99855.44
2022-07-29T04:26:58.018Z,99851.75
2022-07-29T04:28:30.134Z,99857.91
2022-07-29T04:30:02.234Z,99856.09
2022-07-29T04:31:34.295Z,99854.22
2022-07-29T04:33:08.380Z,99851.31
2022-07-29T04:34:40.455Z,99859.16
2022-07-29T04:36:28.532Z,99862.31
2022-07-29T04:38:02.322Z,99861.31
2022-07-29T04:39:34.604Z,99867.22
2022-07-29T04:41:08.235Z,99861.94
2022-07-29T04:42:46.451Z,99862.69
2022-07-29T04:44:20.128Z,99865.16
2022-07-29T04:45:52.307Z,99863.16
2022-07-29T04:47:24.760Z,99867.19
2022-07-29T04:48:57.061Z,99869.44
2022-07-29T04:50:29.270Z,99865.56
2022-07-29T04:52:01.500Z,99872.22
2022-07-29T04:53:33.655Z,99879.75
2022-07-29T04:55:06.943Z,99880.41
2022-07-29T04:56:38.859Z,99881.81
2022-07-29T04:58:11.072Z,99883.47
2022-07-29T04:59:43.109Z,99890.47
2022-07-29T05:01:17.071Z,99884.03
2022-07-29T05:02:49.313Z,99879.59
2022-07-29T05:04:21.531Z,99892.47
2022-07-29T05:05:53.687Z,99889.44
2022-07-29T05:07:25.795Z,99889.28
2022-07-29T05:08:57.818Z,99890.84
2022-07-29T05:10:30.151Z,99882.88
2022-07-29T05:12:02.703Z,99883.63
2022-07-29T05:13:46.321Z,99886.78
2022-07-29T05:15:19.545Z,99890.84
2022-07-29T05:16:52.434Z,99890.53
2022-07-29T05:18:26.168Z,99895.41
2022-07-29T05:19:58.511Z,99901.19
2022-07-29T05:21:30.738Z,99901.00
2022-07-29T05:23:04.259Z,99897.13
2022-07-29T05:24:36.312Z,99901.25
2022-07-29T05:26:08.828Z,99898.41
2022-07-29T05:27:41.100Z,99899.97
2022-07-29T05:29:43.640Z,99895.25
2022-07-29T05:31:05.549Z,99899.38
2022-07-29T05:32:37.767Z,99902.53
2022-07-29T05:34:09.807Z,99896.19
2022-07-29T05:35:41.855Z,99896.09
2022-07-29T05:37:16.740Z,99896.00
2022-07-29T05:38:49.093Z,99896.84
2022-07-29T05:40:21.784Z,99899.38
2022-07-29T05:41:54.186Z,99900.03
2022-07-29T05:43:27.267Z,99902.53
2022-07-29T05:44:59.701Z,99907.53
2022-07-29T05:46:32.213Z,99910.94
2022-07-29T05:48:05.587Z,99913.25
2022-07-29T05:49:38.120Z,99919.28
2022-07-29T05:51:10.198Z,99916.56
2022-07-29T05:52:42.292Z,99915.47
2022-07-29T05:54:14.626Z,99919.69
2022-07-29T05:55:47.367Z,99917.81
2022-07-29T05:57:23.558Z,99915.91
2022-07-29T05:58:55.983Z,99917.38
2022-07-29T06:00:28.597Z,99913.69
2022-07-29T06:02:01.992Z,99912.50
2022-07-29T06:03:34.400Z,99911.44
2022-07-29T06:05:07.243Z,99909.34
2022-07-29T06:06:47.662Z,99910.00
2022-07-29T06:08:20.040Z,99915.03
2022-07-29T06:09:52.436Z,99913.03
2022-07-29T06:11:24.698Z,99909.22
2022-07-29T06:12:57.090Z,99914.19
2022-07-29T06:14:29.819Z,99921.03
2022-07-29T06:16:02.050Z,99917.88
2022-07-29T06:17:34.515Z,99919.22
2022-07-29T06:19:06.935Z,99924.06
2022-07-29T06:20:39.300Z,99914.97
2022-07-29T06:22:11.779Z,99923.44
2022-07-29T06:23:44.029Z,99915.19
2022-07-29T06:25:16.558Z,99922.03
2022-07-29T06:26:49.040Z,99917.47
2022-07-29T06:28:21.642Z,99919.91
2022-07-29T06:29:53.896Z,99922.31
2022-07-29T06:31:26.304Z,99925.94
2022-07-29T06:32:58.538Z,99917.66
2022-07-29T06:34:30.881Z,99926.22
2022-07-29T06:36:06.069Z,99917.84
2022-07-29T06:37:38.348Z,99926.28
2022-07-29T06:39:11.658Z,99925.09
2022-07-29T06:41:04.082Z,99922.84
2022-07-29T06:42:36.305Z,99919.66
2022-07-29T06:44:08.676Z,99924.47
2022-07-29T06:45:42.764Z,99926.78
2022-07-29T06:47:15.233Z,99917.03
2022-07-29T06:48:49.317Z,99914.94
2022-07-29T06:50:23.034Z,99918.31
2022-07-29T06:51:57.089Z,99911.47
2022-07-29T06:53:30.306Z,99918.84
2022-07-29T06:55:02.297Z,99909.25
2022-07-29T06:56:40.283Z,99909.63
2022-07-29T06:58:13.377Z,99907.84
2022-07-29T06:59:45.773Z,99905.41
2022-07-29T07:01:18.120Z,99904.47
2022-07-29T07:02:50.307Z,99899.91
2022-07-29T07:04:22.481Z,99897.06
2022-07-29T07:05:55.763Z,99898.03
2022-07-29T07:07:28.174Z,99896.56
2022-07-29T07:09:00.542Z,99903.31
2022-07-29T07:10:34.251Z,99900.19
2022-07-29T07:12:06.531Z,99900.78
2022-07-29T07:13:38.920Z,99899.47
2022-07-29T07:15:11.934Z,99902.56
2022-07-29T07:16:44.679Z,99905.69
2022-07-29T07:18:18.083Z,99910.50
2022-07-29T07:19:50.192Z,99909.06
2022-07-29T07:21:22.492Z,99904.59
2022-07-29T07:22:55.089Z,99903.97
2022-07-29T07:24:27.427Z,99902.78
2022-07-29T07:25:59.721Z,99902.53
2022-07-29T07:27:32.122Z,99891.81
2022-07-29T07:29:04.508Z,99895.78
2022-07-29T07:30:37.023Z,99897.22
2022-07-29T07:32:09.453Z,99888.53
2022-07-29T07:33:41.887Z,99899.72
2022-07-29T07:35:14.483Z,99903.34
2022-07-29T07:36:46.674Z,99896.94
2022-07-29T07:38:19.184Z,99899.22
2022-07-29T07:39:52.053Z,99895.94
2022-07-29T07:41:24.995Z,99896.41
2022-07-29T07:42:57.342Z,99894.91
2022-07-29T07:44:29.778Z,99900.56
2022-07-29T07:46:02.191Z,99898.81
2022-07-29T07:47:34.708Z,99900.75
2022-07-29T07:49:06.978Z,99901.91
2022-07-29T07:50:39.388Z,99890.63
2022-07-29T07:52:11.751Z,99896.16
2022-07-29T07:53:46.217Z,99890.88
2022-07-29T07:55:19.065Z,99892.41
2022-07-29T07:56:53.099Z,99893.72
2022-07-29T07:58:25.852Z,99885.09
2022-07-29T07:59:58.127Z,99884.56
2022-07-29T08:01:50.440Z,99886.69
2022-07-29T08:03:24.505Z,99890.97
2022-07-29T08:04:56.841Z,99876.59
2022-07-29T08:06:29.261Z,99876.59
2022-07-29T08:08:01.673Z,99888.94
2022-07-29T08:09:34.713Z,99881.28
2022-07-29T08:11:09.739Z,99878.06
2022-07-29T08:12:42.479Z,99883.16
2022-07-29T08:14:15.534Z,99887.63
2022-07-29T08:15:48.869Z,99880.09
2022-07-29T08:17:21.288Z,99876.44
2022-07-29T08:18:58.184Z,99879.78
2022-07-29T08:20:31.209Z,99877.56
2022-07-29T08:22:03.660Z,99880.66
2022-07-29T08:23:51.498Z,99873.66
2022-07-29T08:25:26.933Z,99878.69
2022-07-29T08:26:59.675Z,99874.88
2022-07-29T08:28:32.690Z,99872.81
2022-07-29T08:30:05.129Z,99873.19
2022-07-29T08:31:38.622Z,99868.56
2022-07-29T08:33:11.005Z,99873.91
2022-07-29T08:34:43.865Z,99874.75
2022-07-29T08:36:16.177Z,99871.25
2022-07-29T08:37:49.605Z,99866.78
2022-07-29T08:39:22.132Z,99873.63
2022-07-29T08:40:54.839Z,99871.09
2022-07-29T08:42:27.266Z,99869.16
2022-07-29T08:43:59.755Z,99853.88
2022-07-29T08:45:44.275Z,99859.63
2022-07-29T08:47:19.724Z,99856.53
2022-07-29T08:48:52.156Z,99856.53
2022-07-29T08:50:24.526Z,99858.88
2022-07-29T08:51:57.742Z,99852.19
2022-07-29T08:53:30.712Z,99859.88
2022-07-29T08:55:03.628Z,99852.75
2022-07-29T08:56:36.115Z,99846.16
2022-07-29T08:58:08.926Z,99852.19
2022-07-29T08:59:44.738Z,99852.56
2022-07-29T09:01:19.547Z,99848.38
2022-07-29T09:02:58.296Z,99842.97
2022-07-29T09:04:35.987Z,99834.25
2022-07-29T09:06:08.430Z,99838.00
2022-07-29T09:07:41.077Z,99842.63
2022-07-29T09:09:15.141Z,99841.38
2022-07-29T09:10:47.750Z,99828.97
2022-07-29T09:12:28.759Z,99835.41
2022-07-29T09:14:02.602Z,99837.16
2022-07-29T09:15:35.029Z,99839.91
2022-07-29T09:17:08.113Z,99831.88
2022-07-29T09:18:45.702Z,99838.13
2022-07-29T09:20:20.810Z,99844.69
2022-07-29T09:21:59.632Z,99833.59
2022-07-29T09:23:32.003Z,99831.28
2022-07-29T09:25:07.649Z,99835.19
2022-07-29T09:26:45.267Z,99835.56
2022-07-29T09:28:18.777Z,99832.44
2022-07-29T09:30:28.887Z,99828.78
2022-07-29T09:32:08.678Z,99831.44
2022-07-29T09:33:43.400Z,99828.22
2022-07-29T09:35:21.538Z,99828.63
2022-07-29T09:36:56.059Z,99832.81
2022-07-29T09:38:28.666Z,99829.84
2022-07-29T09:40:01.446Z,99831.06
2022-07-29T09:41:56.130Z,99831.94
2022-07-29T09:43:28.918Z,99829.53
2022-07-29T09:45:01.488Z,99836.53
2022-07-29T09:46:34.057Z,99824.69
2022-07-29T09:48:24.017Z,99824.97
2022-07-29T09:50:00.845Z,99825.06
2022-07-29T09:51:38.556Z,99819.28
2022-07-29T09:53:12.076Z,99817.50
2022-07-29T09:54:47.409Z,99812.84
2022-07-29T09:56:19.782Z,99816.19
2022-07-29T09:57:52.186Z,99812.06
2022-07-29T09:59:27.863Z,99813.44
2022-07-29T10:01:00.268Z,99811.63
2022-07-29T10:02:33.927Z,99802.69
2022-07-29T10:04:06.549Z,99804.88
2022-07-29T10:05:38.868Z,99809.56
2022-07-29T10:07:11.175Z,99806.44
2022-07-29T10:08:43.583Z,99797.13
2022-07-29T10:10:27.133Z,99802.78
2022-07-29T10:12:10.569Z,99801.81
2022-07-29T10:13:43.675Z,99797.16
2022-07-29T10:15:17.484Z,99798.50
2022-07-29T10:16:50.047Z,99793.16
2022-07-29T10:18:22.368Z,99800.50
2022-07-29T10:19:54.889Z,99797.19
2022-07-29T10:21:36.253Z,99794.84
2022-07-29T10:23:10.395Z,99787.84
2022-07-29T10:24:42.926Z,99793.03
2022-07-29T10:26:16.031Z,99795.75
2022-07-29T10:27:48.952Z,99794.13
2022-07-29T10:29:21.488Z,99782.56
2022-07-29T10:31:02.103Z,99787.75
2022-07-29T10:32:37.185Z,99777.53
2022-07-29T10:34:18.418Z,99773.84
2022-07-29T10:36:02.342Z,99776.50
2022-07-29T10:37:45.934Z,99774.22
2022-07-29T10:39:45.205Z,99767.38
2022-07-29T10:41:32.384Z,99765.53
2022-07-29T10:43:24.856Z,99761.69
2022-07-29T10:44:57.734Z,99753.16
2022-07-29T10:46:37.247Z,99762.50
2022-07-29T10:48:10.587Z,99756.34
2022-07-29T10:49:57.606Z,99751.16
2022-07-29T10:51:52.631Z,99750.00
2022-07-29T10:53:25.685Z,99745.78
2022-07-29T10:55:01.937Z,99746.81
2022-07-29T10:56:35.347Z,99745.13
2022-07-29T10:58:15.161Z,99742.31
2022-07-29T10:59:53.295Z,99743.28
2022-07-29T11:01:37.442Z,99731.56
2022-07-29T11:03:12.396Z,99730.53
2022-07-29T11:04:48.588Z,99726.53
2022-07-29T11:06:26.416Z,99736.56
2022-07-29T11:08:20.447Z,99734.00
2022-07-29T11:10:11.959Z,99728.66
2022-07-29T11:11:51.355Z,99731.72
2022-07-29T11:13:53.393Z,99729.03
2022-07-29T11:15:28.599Z,99726.66
2022-07-29T11:17:08.556Z,99717.63
2022-07-29T11:19:13.254Z,99714.25
2022-07-29T11:20:49.843Z,99728.97
2022-07-29T11:22:46.066Z,99716.06
2022-07-29T11:24:35.946Z,99720.94
2022-07-29T11:26:12.760Z,99709.22
2022-07-29T11:27:48.370Z,99706.53
2022-07-29T11:29:23.694Z,99704.34
2022-07-29T11:30:56.746Z,99703.19
2022-07-29T11:32:40.255Z,99707.16
2022-07-29T11:34:31.607Z,99696.94
2022-07-29T11:36:16.792Z,99708.81
2022-07-29T11:38:38.692Z,99701.56
2022-07-29T11:40:15.652Z,99698.53
2022-07-29T11:41:48.185Z,99695.88
2022-07-29T11:43:53.509Z,99693.47
2022-07-29T11:47:07.231Z,99680.22
2022-07-29T11:48:43.586Z,99688.34
2022-07-29T11:50:33.528Z,99679.47
2022-07-29T11:52:07.211Z,99686.19
2022-07-29T11:53:48.764Z,99678.44
2022-07-29T11:55:32.600Z,99677.56
2022-07-29T11:57:08.683Z,99673.38
2022-07-29T11:58:41.318Z,99682.00
2022-07-29T12:00:16.282Z,99682.94
2022-07-29T12:02:12.006Z,99673.53
2022-07-29T12:04:04.763Z,99671.66
2022-07-29T12:05:48.070Z,99675.00
2022-07-29T12:07:33.694Z,99668.81
2022-07-29T12:09:11.237Z,99663.72
2022-07-29T12:10:49.278Z,99662.34
2022-07-29T12:12:22.387Z,99658.41
2022-07-29T12:13:56.996Z,99656.53
2022-07-29T12:15:39.495Z,99657.25
2022-07-29T12:17:30.513Z,99657.19
2022-07-29T12:19:06.077Z,99657.66
2022-07-29T12:20:38.531Z,99653.94
2022-07-29T12:22:11.113Z,99654.03
2022-07-29T12:24:01.887Z,99649.94
2022-07-29T12:25:38.541Z,99639.50
2022-07-29T12:27:10.891Z,99641.81
2022-07-29T12:28:44.712Z,99641.47
2022-07-29T12:30:19.611Z,99644.78
2022-07-29T12:31:57.736Z,99638.03
2022-07-29T12:33:31.295Z,99640.50
2022-07-29T12:35:06.775Z,99639.94
2022-07-29T12:36:39.468Z,99639.19
2022-07-29T12:38:13.805Z,99633.13
2022-07-29T12:39:46.769Z,99635.44
2022-07-29T12:41:19.250Z,99633.75
2022-07-29T12:43:11.649Z,99630.91
2022-07-29T12:44:51.536Z,99629.03
2022-07-29T12:46:24.211Z,99629.31
2022-07-29T12:47:56.478Z,99626.25
2022-07-29T12:49:28.789Z,99622.38
2022-07-29T12:51:03.594Z,99622.63
2022-07-29T12:52:36.690Z,99613.28
2022-07-29T12:54:17.383Z,99617.34
2022-07-29T12:55:55.969Z,99618.03
2022-07-29T12:57:29.104Z,99609.66
2022-07-29T12:59:01.520Z,99619.09
2022-07-29T13:00:34.021Z,99616.06
2022-07-29T13:02:06.435Z,99614.13
2022-07-29T13:03:59.797Z,99606.97
2022-07-29T13:05:49.094Z,99603.56
2022-07-29T13:07:55.416Z,99605.25
2022-07-29T13:09:23.925Z,99596.91
2022-07-29T13:10:56.328Z,99593.25
2022-07-29T13:12:29.507Z,99597.22
2022-07-29T13:15:41.547Z,99597.28
2022-07-29T13:17:17.114Z,99598.56
2022-07-29T13:18:49.740Z,99592.00
2022-07-29T13:20:26.222Z,99592.91
2022-07-29T13:21:59.080Z,99587.53
2022-07-29T13:23:31.665Z,99589.19
2022-07-29T13:25:11.316Z,99588.44
2022-07-29T13:26:43.470Z,99582.06
2022-07-29T13:28:15.990Z,99578.06
2022-07-29T13:29:48.617Z,99578.16
2022-07-29T13:31:21.061Z,99574.31
2022-07-29T13:32:54.421Z,99571.31
2022-07-29T13:34:27.011Z,99573.63
2022-07-29T13:35:59.237Z,99571.97
2022-07-29T13:37:32.026Z,99575.28
2022-07-29T13:39:05.213Z,99572.88
2022-07-29T13:40:38.090Z,99576.88
2022-07-29T13:42:11.166Z,99576.09
2022-07-29T13:43:43.494Z,99577.00
2022-07-29T13:45:15.788Z,99564.47
2022-07-29T13:46:48.150Z,99568.06
2022-07-29T13:48:21.027Z,99561.75
2022-07-29T13:49:53.254Z,99558.72
2022-07-29T13:51:25.515Z,99568.09
2022-07-29T13:52:57.817Z,99562.97
2022-07-29T13:54:30.308Z,99559.88
2022-07-29T13:56:02.630Z,99566.88
2022-07-29T13:57:35.033Z,99565.28
2022-07-29T13:59:07.447Z,99569.41
2022-07-29T14:00:39.996Z,99562.84
2022-07-29T14:02:13.639Z,99565.94
2022-07-29T14:03:48.076Z,99564.66
2022-07-29T14:05:20.678Z,99566.34
2022-07-29T14:06:53.192Z,99561.81
2022-07-29T14:08:25.608Z,99559.75
2022-07-29T14:09:58.377Z,99559.34
2022-07-29T14:11:30.774Z,99561.09
2022-07-29T14:13:03.442Z,99552.28
2022-07-29T14:14:37.840Z,99559.59
2022-07-29T14:16:10.458Z,99554.69
2022-07-29T14:17:42.886Z,99561.94
2022-07-29T14:19:15.320Z,99561.16
2022-07-29T14:20:47.865Z,99559.38
2022-07-29T14:22:20.624Z,99556.56
2022-07-29T14:23:57.682Z,99565.31
2022-07-29T14:25:30.344Z,99563.03
2022-07-29T14:27:02.702Z,99562.25
2022-07-29T14:28:36.925Z,99560.44
2022-07-29T14:30:12.925Z,99563.97
2022-07-29T14:31:45.414Z,99560.34
2022-07-29T14:33:17.849Z,99565.75
2022-07-29T14:34:50.287Z,99555.91
2022-07-29T14:36:25.507Z,99559.63
2022-07-29T14:37:58.713Z,99560.69
2022-07-29T14:39:31.912Z,99558.19
2022-07-29T14:41:05.104Z,99567.06
2022-07-29T14:42:38.446Z,99572.78
2022-07-29T14:44:11.170Z,99573.81
2022-07-29T14:45:43.417Z,99577.53
2022-07-29T14:47:15.881Z,99591.25
2022-07-29T14:48:48.323Z,99594.94
2022-07-29T14:50:23.289Z,99600.78
2022-07-29T14:52:04.992Z,99602.22
2022-07-29T14:53:37.443Z,99600.34
2022-07-29T14:55:16.507Z,99597.38
2022-07-29T14:56:56.652Z,99607.06
2022-07-29T14:58:28.988Z,99610.00
2022-07-29T15:00:01.307Z,99624.28
2022-07-29T15:01:33.831Z,99626.63
2022-07-29T15:03:06.902Z,99635.09
2022-07-29T15:04:43.870Z,99636.25
2022-07-29T15:06:16.189Z,99637.41
2022-07-29T15:07:48.495Z,99631.97
2022-07-29T15:09:20.824Z,99639.25
2022-07-29T15:10:53.248Z,99629.19
2022-07-29T15:12:25.350Z,99626.81
2022-07-29T15:13:57.697Z,99628.91
2022-07-29T15:15:30.213Z,99636.72
2022-07-29T15:17:02.578Z,99637.81
2022-07-29T15:18:39.117Z,99642.84
2022-07-29T15:20:13.156Z,99640.84
2022-07-29T15:21:59.547Z,99644.91
2022-07-29T15:23:32.415Z,99643.44
2022-07-29T15:25:05.095Z,99640.88
2022-07-29T15:26:37.567Z,99630.13
2022-07-29T15:28:10.355Z,99615.75
2022-07-29T15:29:43.554Z,99618.00
2022-07-29T15:31:15.806Z,99620.16
2022-07-29T15:32:48.308Z,99623.06
2022-07-29T15:34:28.537Z,99616.84
2022-07-29T15:36:01.189Z,99608.19
2022-07-29T15:37:49.004Z,99595.34
2022-07-29T15:39:22.904Z,99604.47
2022-07-29T15:40:55.261Z,99599.75
2022-07-29T15:42:27.685Z,99599.44
2022-07-29T15:44:00.270Z,99601.72
2022-07-29T15:46:03.694Z,99596.00
2022-07-29T15:47:39.119Z,99592.22
2022-07-29T15:49:11.539Z,99586.66
2022-07-29T15:50:47.205Z,99595.84
2022-07-29T15:52:26.107Z,99599.09
2022-07-29T15:53:58.893Z,99593.03
2022-07-29T15:55:31.261Z,99588.31
2022-07-29T15:57:05.545Z,99587.22
2022-07-29T15:58:37.976Z,99591.56
2022-07-29T16:00:11.911Z,99577.28
2022-07-29T16:01:44.347Z,99580.53
2022-07-29T16:03:17.007Z,99585.53
2022-07-29T16:04:49.617Z,99592.69
2022-07-29T16:06:22.617Z,99595.75
2022-07-29T16:07:54.989Z,99587.66
2022-07-29T16:09:27.391Z,99591.00
2022-07-29T16:10:59.740Z,99600.66
2022-07-29T16:12:32.106Z,99599.81
2022-07-29T16:14:04.972Z,99596.44
2022-07-29T16:15:37.377Z,99593.66
2022-07-29T16:17:09.758Z,99599.66
2022-07-29T16:18:47.250Z,99596.88
2022-07-29T16:20:21.234Z,99585.53
2022-07-29T16:21:59.542Z,99589.03
2022-07-29T16:23:32.773Z,99595.03
2022-07-29T16:25:05.701Z,99592.25
2022-07-29T16:26:38.136Z,99595.72
2022-07-29T16:28:11.736Z,99612.22
2022-07-29T16:29:44.346Z,99601.19
2022-07-29T16:31:16.865Z,99605.94
2022-07-29T16:32:49.564Z,99607.06
2022-07-29T16:34:21.915Z,99610.97
2022-07-29T16:35:54.246Z,99611.50
2022-07-29T16:37:28.724Z,99605.91
2022-07-29T16:39:01.331Z,99608.69
2022-07-29T16:40:33.941Z,99607.88
2022-07-29T16:42:06.613Z,99608.81
2022-07-29T16:43:39.342Z,99601.72
2022-07-29T16:45:11.980Z,99605.47
2022-07-29T16:46:45.624Z,99604.22
2022-07-29T16:48:18.788Z,99603.72
2022-07-29T16:49:51.526Z,99605.69
2022-07-29T16:51:24.227Z,99599.41
2022-07-29T16:52:56.895Z,99604.47
2022-07-29T16:54:29.378Z,99605.44
2022-07-29T16:56:02.366Z,99606.38
2022-07-29T16:57:34.797Z,99601.94
2022-07-29T16:59:07.110Z,99606.16
2022-07-29T17:00:39.562Z,99598.91
2022-07-29T17:02:12.822Z,99600.56
2022-07-29T17:04:11.268Z,99602.97
2022-07-29T17:05:52.751Z,99604.91
2022-07-29T17:07:26.986Z,99601.41
2022-07-29T17:08:59.387Z,99604.91
2022-07-29T17:10:31.713Z,99597.22
2022-07-29T17:12:04.333Z,99594.56
2022-07-29T17:13:36.630Z,99591.91
2022-07-29T17:15:11.586Z,99591.06
2022-07-29T17:16:44.104Z,99584.44
2022-07-29T17:18:33.290Z,99582.22
2022-07-29T17:20:06.475Z,99587.66
2022-07-29T17:21:38.629Z,99585.69
2022-07-29T17:23:21.115Z,99587.66
2022-07-29T17:24:53.811Z,99578.03
2022-07-29T17:26:28.230Z,99578.03
2022-07-29T17:28:01.305Z,99585.84
2022-07-29T17:29:35.440Z,99587.66
2022-07-29T17:31:08.011Z,99585.69
2022-07-29T17:32:41.231Z,99591.28
2022-07-29T17:34:13.455Z,99590.31
2022-07-29T17:36:04.777Z,99585.28
2022-07-29T17:37:37.388Z,99588.75
2022-07-29T17:39:11.822Z,99590.47
2022-07-29T17:40:44.250Z,99584.81
2022-07-29T17:42:16.735Z,99588.72
2022-07-29T17:43:50.134Z,99594.56
2022-07-29T17:45:22.525Z,99588.13
2022-07-29T17:46:54.937Z,99580.59
2022-07-29T17:48:27.554Z,99585.31
2022-07-29T17:49:59.985Z,99589.06
2022-07-29T17:51:32.462Z,99590.91
2022-07-29T17:53:04.907Z,99589.31
2022-07-29T17:54:49.711Z,99595.34
2022-07-29T17:56:22.482Z,99590.03
2022-07-29T17:57:59.727Z,99595.34
2022-07-29T17:59:32.256Z,99587.25
2022-07-29T18:01:04.949Z,99599.81
2022-07-29T18:02:37.975Z,99595.16
2022-07-29T18:04:10.385Z,99599.75
2022-07-29T18:05:42.908Z,99601.28
2022-07-29T18:07:15.477Z,99595.50
2022-07-29T18:08:48.261Z,99602.75
2022-07-29T18:10:20.642Z,99600.47
2022-07-29T18:11:53.161Z,99601.00
2022-07-29T18:13:26.863Z,99601.25
2022-07-29T18:14:59.154Z,99611.41
2022-07-29T18:16:31.555Z,99607.47
2022-07-29T18:18:03.970Z,99610.38
2022-07-29T18:19:36.227Z,99608.94
2022-07-29T18:21:08.611Z,99608.41
2022-07-29T18:22:41.107Z,99613.34
2022-07-29T18:24:13.425Z,99628.91
2022-07-29T18:25:45.856Z,99625.09
2022-07-29T18:27:18.088Z,99625.34
2022-07-29T18:28:50.391Z,99626.56
2022-07-29T18:30:22.814Z,99632.13
2022-07-29T18:31:55.137Z,99631.38
2022-07-29T18:33:28.312Z,99627.19
2022-07-29T18:35:03.061Z,99631.50
2022-07-29T18:36:35.423Z,99630.06
2022-07-29T18:38:07.589Z,99628.53
2022-07-29T18:39:40.077Z,99630.47
2022-07-29T18:41:12.545Z,99633.34
2022-07-29T18:42:45.012Z,99633.50
2022-07-29T18:44:18.222Z,99632.06
2022-07-29T18:45:51.279Z,99641.09